EmailTwitter


Observations de surface / Québec / LFRD

Régions: Québec | Canada | États-Unis | Europe | France | UK | Elsewhere
Station
Affichage
Infos & localisation pour LFRD | Aide pour décoder les METARs

Observations prises le 2017-02-24 à 10H00 UTC à DINARD/PLEURTUIT, FR (LFRD)

Etat du ciel: partiellement nuageux.

Température: 9.0 Celsius

Point de rosée: 3.0 Celsius

Humidité relative: 66%

Facteur vent: 6.

Vents: Nord-nord-ouest à 24 km/h ou 13 noeuds.

Pression au niveau moyen de la mer: 102.00 kilopascals.

Visibilité horizontale: 6.21 milles terrestres ou 9.94 kilomètres.

Hauteur du plafond: 884 mètres ( 2900 pieds ).

Observation METAR:

LFRD 241000Z AUTO 34013KT 9999 BKN029 BKN034 09/03 Q1020 NOSIG=